Tiempo atmosférico en la estación meteorológica de Valderredible, Cubillo de Ebro, Cantabria (765 m.)



Fecha
DESCASC
Temp. máxima en grados centígrados (hora)
DESCASC
Temp. mínima en grados centígrados (hora)
DESCASC
Temp. media en grados centígrados
DESCASC
Racha de viento máxima en m/sg (hora)
DESCASC
Velocidad máxima media en intervalos de 10 minutos(hora)
DESCASC
Precipitaciones diarias en mm
DESCASC
Precipitaciones de 00:00 a 06:00 en mm
DESCASC
Precipitaciones de 06:00 a 12:00 en mm
DESCASC
Precipitaciones de 12:00 a 18:00 en mm
DESCASC
Precipitaciones de 18:00 a 24:00 en mm
DESCASC
14-02-2019 16.8 (16:50) -4.7 (07:40) 6 6.67 (15:20) 5 (12:30) 0 0 0 0 0
13-02-2019 17.1 (16:00) -6.4 (08:30) 5.4 4.17 (15:00) 2.22 (17:10) 0 0 0 0 0
12-02-2019 13.8 (16:20) -4 (06:10) 4.9 4.17 (16:50) 2.5 (14:20) 0 0 0 0 0
11-02-2019 9.2 (14:30) -2 (07:40) 3.6 8.89 (16:10) 3.89 (16:40) 0 0 0 0 0
10-02-2019 10.9 (13:00) 2.8 (00:00) 6.8 14.17 (05:10) 7.78 (05:00) 0 0 0 0 0
09-02-2019 11.2 (16:20) 3 (00:00) 7.1 14.17 (23:40) 7.78 (23:00) 0 0 0 0 0
08-02-2019 9.3 (16:00) -1.5 (-00:0) 3.9 12.5 (13:20) 6.67 (13:30) 0 0 0 0 0
07-02-2019 10.2 (13:40) -0.4 (00:00) 4.9 5.83 (13:40) 4.17 (14:00) 0 0 0 0 0
06-02-2019 14.3 (15:40) -3.6 (-00:0) 5.4 8.06 (14:40) 4.44 (15:50) 0 0 0 0 0
05-02-2019 13.1 (16:40) -3.1 (-00:0) 5 3.89 (17:50) 2.78 (17:50) 0 0 0 0 0
04-02-2019 7.7 (17:10) -6.9 (-00:0) 0.4 6.11 (15:00) 3.89 (15:10) 0 0 0 0 0
03-02-2019 4.5 (16:00) -4.8 (-00:0) -0.2 7.22 (13:50) 4.17 (13:50) 3.6 0.4 3.2 0 0
02-02-2019 3.4 (14:50) -0.5 (-00:0) 1.5 15 (06:20) 8.61 (06:20) 16 8.2 3.8 1.4 2.6
01-02-2019 7.4 (00:00) 0.2 (00:00) 3.8 16.67 (05:20) 8.61 (05:20) 7.6 0 0.2 0.8 6.6
31-01-2019 11.2 (13:50) 3.3 (00:00) 7.2 17.78 (21:00) 8.61 (16:20) 16.4 0.6 0.6 2 13.2
30-01-2019 7.1 (14:30) -4.3 (-00:0) 1.4 12.22 (14:50) 8.06 (14:50) 1.2 0 0 0 1.2
29-01-2019 9.8 (15:50) -2.4 (-00:0) 3.7 13.33 (11:30) 7.78 (09:40) 0.4 0 0 0.4 0
28-01-2019 9.2 (13:20) -4.9 (-00:0) 2.1 15.28 (14:50) 8.33 (14:00) 0 0 0 0 0
27-01-2019 6.9 (12:40) -1.6 (-00:0) 2.7 15.56 (15:30) 8.61 (13:30) 0 0 0 0 0
26-01-2019 11.7 (16:10) -2 (-00:0) 4.8 9.44 (13:10) 5.56 (13:10) 0 0 0 0 0
25-01-2019 9.6 (14:50) 2.6 (00:00) 6.1 10 (14:40) 5 (09:40) 0 0 0 0 0
24-01-2019 9.3 (15:20) 5.7 (00:00) 7.5 12.22 (18:00) 5.56 (00:20) 19.8 14.6 5 0.2 0
23-01-2019 8.5 (16:00) 0.1 (00:00) 4.3 17.22 (18:50) 7.22 (14:30) 9.6 2.8 2 1.6 3.2
22-01-2019 2.2 (16:20) -2.2 (-00:0) 0 4.72 (15:50) 2.5 (15:50) 10.8 0 0.8 3.6 6.4
21-01-2019 5.8 (16:00) -2.2 (-00:0) 1.8 6.67 (14:20) 4.17 (17:10) 10.6 8.8 1.6 0.2 0
20-01-2019 5.6 (13:30) 0.3 (00:00) 2.9 6.67 (13:50) 3.89 (13:50) 15.2 1.2 2.8 5 6.2
19-01-2019 4.2 (13:30) 0.1 (00:00) 2.1 7.78 (13:10) 4.17 (10:10) 4.8 0 0 1.6 3.2

Gráficas

Temp. máximas Temp. mínimas Temp. medias Precipitaciones Rachas de viento máximas Velocidades máximas media en intervalos de 10 minutos

Datos horarios

Fecha y hora oficial Temperatura (ºC) Velocidad del viento (km/h) Dirección del viento Racha (km/h) Dirección de racha Precipitación (mm) Presión (hPa) Tendencia (hPa) Humedad (%)
2019-02-17 23:00:00 0.5 3 Este 9 Sudoeste 0 -- -- 77
2019-02-17 22:00:00 1.4 4 Noroeste 10 Oeste 0 -- -- 72
2019-02-17 21:00:00 3.8 4 Noroeste 15 Nordeste 0 -- -- 63
2019-02-17 20:00:00 9.2 8 Este 17 Este 0 -- -- 42
2019-02-17 19:00:00 11.5 9 Este 18 Nordeste 0 -- -- 39
2019-02-17 18:00:00 15.5 4 Sudoeste 15 Oeste 0 -- -- 28
2019-02-17 17:00:00 16.1 9 Sudoeste 20 Sudoeste 0 -- -- 30
2019-02-17 16:00:00 15.9 12 Sudoeste 23 Sudoeste 0 -- -- 30
2019-02-17 15:00:00 16.2 8 Sur 17 Sur 0 -- -- 32
2019-02-17 14:00:00 15.3 9 Sudoeste 27 Oeste 0 -- -- 35
2019-02-17 13:00:00 14.7 9 Sur 18 Sudeste 0 -- -- 34
2019-02-17 12:00:00 13.6 7 Sur 16 Sudeste 0 -- -- 36
2019-02-17 11:00:00 11.4 6 Sur 15 Sur 0 -- -- 39
2019-02-17 10:00:00 6.6 2 Sudoeste 9 Oeste 0 -- -- 62
2019-02-17 09:00:00 1.6 3 Noroeste 15 Oeste 0 -- -- 76
2019-02-17 08:00:00 -0.2 8 Noroeste 13 Oeste 0 -- -- 78
2019-02-17 07:00:00 1.6 9 Noroeste 12 Noroeste 0 -- -- 74
2019-02-17 06:00:00 -1.9 8 Noroeste 12 Sudoeste 0 -- -- 90
2019-02-17 05:00:00 -2 8 Oeste 10 Noroeste 0 -- -- 91
2019-02-17 04:00:00 -1.1 5 Oeste 10 Oeste 0 -- -- 87
2019-02-17 03:00:00 0.3 2 Norte 9 Noroeste 0 -- -- 80
2019-02-17 02:00:00 1.2 6 Noroeste 13 Oeste 0 -- -- 78
2019-02-17 01:00:00 3.5 4 Oeste 9 Sur 0 -- -- 69
2019-02-17 00:00:00 2.6 3 Noroeste 8 Sudoeste 0 -- -- 82
2019-02-16 23:00:00 2.4 3 Noroeste 7 Noroeste 0 -- -- 87
2019-02-16 22:00:00 3.8 3 Este 7 Oeste 0 -- -- 83
2019-02-16 21:00:00 7.4 5 Este 14 Sudeste 0 -- -- 72
2019-02-16 20:00:00 9.8 6 Este 15 Sudeste 0 -- -- 65
2019-02-16 19:00:00 12.9 6 Este 13 Este 0 -- -- 52
2019-02-16 18:00:00 16.2 7 Sudoeste 23 Sudoeste 0 -- -- 41
2019-02-16 17:00:00 18 10 Sudoeste 22 Sudoeste 0 -- -- 39
2019-02-16 16:00:00 17.9 9 Sudoeste 25 Oeste 0 -- -- 38
2019-02-16 15:00:00 17.4 11 Sur 21 Sudoeste 0 -- -- 38
2019-02-16 14:00:00 15.4 3 Este 9 Este 0 -- -- 48
2019-02-16 13:00:00 12.1 3 Este 12 Este 0 -- -- 53
2019-02-16 12:00:00 8.7 4 Este 6 Sudeste 0 -- -- 65
2019-02-16 11:00:00 4.1 0 Calma 6 Sudeste 0 -- -- 77
2019-02-16 10:00:00 -0.7 2 Sudeste 5 Este 0 -- -- 93
2019-02-16 09:00:00 -4.6 3 Oeste 6 Oeste 0 -- -- 96
2019-02-16 08:00:00 -5.6 3 Sudoeste 4 Sudoeste 0 -- -- 95
2019-02-16 07:00:00 -5.3 2 Noroeste 6 Noroeste 0 -- -- 95
2019-02-16 06:00:00 -4.9 2 Oeste 6 Oeste 0 -- -- 95
2019-02-16 05:00:00 -4.3 3 Sudoeste 5 Oeste 0 -- -- 94
2019-02-16 04:00:00 -3.6 2 Oeste 7 Noroeste 0 -- -- 94
2019-02-16 03:00:00 -3.1 3 Oeste 7 Oeste 0 -- -- 94
2019-02-16 02:00:00 -2.6 3 Oeste 6 Sudoeste 0 -- -- 93
2019-02-16 01:00:00 -1.7 5 Oeste 6 Oeste 0 -- -- 92
2019-02-16 00:00:00 -0.7 5 Oeste 8 Oeste 0 -- -- 90
2019-02-15 23:00:00 0.5 6 Oeste 9 Noroeste 0 -- -- 88
2019-02-15 22:00:00 1.8 3 Noroeste 8 Oeste 0 -- -- 82
2019-02-15 21:00:00 4.1 3 Noroeste 7 Noroeste 0 -- -- 74
2019-02-15 20:00:00 7.3 0 Calma 10 Este 0 -- -- 63
2019-02-15 19:00:00 11.7 3 Oeste 10 Este 0 -- -- 49
2019-02-15 18:00:00 16.9 4 Sur 10 Sudeste 0 -- -- 34
2019-02-15 17:00:00 18.8 4 Sur 12 Sudoeste 0 -- -- 32
2019-02-15 16:00:00 18 7 Sudoeste 23 Oeste 0 -- -- 31
2019-02-15 15:00:00 17.2 10 Oeste 19 Oeste 0 -- -- 34
2019-02-15 14:00:00 15.5 3 Oeste 10 Este 0 -- -- 42
2019-02-15 13:00:00 13.7 2 Sur 9 Nordeste 0 -- -- 47
2019-02-15 12:00:00 9.4 4 Sudeste 10 Sudeste 0 -- -- 61
2019-02-15 11:00:00 4.7 2 Sudeste 3 Sur 0 -- -- 76
2019-02-15 10:00:00 -0.2 0 Calma 3 Sudeste 0 -- -- 92
2019-02-15 09:00:00 -4.2 2 Este 4 Oeste 0 -- -- 97
2019-02-15 08:00:00 -5.4 4 Oeste 5 Oeste 0 -- -- 95
2019-02-15 07:00:00 -5.3 3 Oeste 7 Oeste 0 -- -- 95
2019-02-15 06:00:00 -4.8 4 Noroeste 8 Oeste 0 -- -- 96
2019-02-15 05:00:00 -4.7 6 Oeste 8 Oeste 0 -- -- 95
2019-02-15 04:00:00 -4 4 Oeste 6 Oeste 0 -- -- 95
2019-02-15 03:00:00 -3.4 4 Oeste 5 Oeste 0 -- -- 95
2019-02-15 02:00:00 -2.9 0 Calma 8 Oeste 0 -- -- 94
2019-02-15 01:00:00 -2 3 Oeste 6 Oeste 0 -- -- 93
2019-02-15 00:00:00 -1.5 5 Oeste 8 Oeste 0 -- -- 90
2019-02-14 23:00:00 -0.2 3 Oeste 6 Oeste 0 -- -- 86
2019-02-14 22:00:00 1.6 5 Oeste 9 Este 0 -- -- 80
2019-02-14 21:00:00 4.9 6 Este 12 Este 0 -- -- 79
2019-02-14 20:00:00 7.3 8 Este 17 Este 0 -- -- 70
2019-02-14 19:00:00 10.9 10 Este 18 Este 0 -- -- 60
2019-02-14 18:00:00 14.6 7 Sudeste 18 Sudeste 0 -- -- 48
2019-02-14 17:00:00 16.6 9 Sudeste 21 Sudeste 0 -- -- 39
2019-02-14 16:00:00 16.2 10 Sudeste 24 Este 0 -- -- 44
2019-02-14 15:00:00 14.5 14 Este 21 Nordeste 0 -- -- 47
2019-02-14 14:00:00 13.1 9 Este 20 Este 0 -- -- 51
2019-02-14 13:00:00 9.5 15 Este 23 Este 0 -- -- 63
2019-02-14 12:00:00 7.5 11 Este 17 Este 0 -- -- 68
2019-02-14 11:00:00 4.5 10 Este 14 Este 0 -- -- 80
2019-02-14 10:00:00 0.5 4 Este 7 Este 0 -- -- 93
2019-02-14 09:00:00 -3.8 3 Oeste 8 Oeste 0 -- -- 97
2019-02-14 08:00:00 -4.7 4 Oeste 6 Oeste 0 -- -- 96
2019-02-14 07:00:00 -4.5 4 Oeste 6 Oeste 0 -- -- 96
2019-02-14 06:00:00 -4.3 4 Oeste 8 Oeste 0 -- -- 96
2019-02-14 05:00:00 -3.8 6 Oeste 9 Oeste 0 -- -- 95
2019-02-14 04:00:00 -3.7 7 Oeste 9 Oeste 0 -- -- 95
2019-02-14 03:00:00 -3.2 4 Oeste 8 Oeste 0 -- -- 95
2019-02-14 02:00:00 -3 6 Oeste 8 Oeste 0 -- -- 93
2019-02-14 01:00:00 -2.3 6 Oeste 10 Oeste 0 -- -- 93
2019-02-14 00:00:00 -2 8 Oeste 9 Oeste 0 -- -- 91
2019-02-13 23:00:00 -0.9 6 Oeste 8 Oeste 0 -- -- 87
2019-02-13 22:00:00 0.6 6 Oeste 8 Oeste 0 -- -- 81
2019-02-13 21:00:00 2.6 3 Oeste 7 Noroeste 0 -- -- 74
2019-02-13 20:00:00 6.6 0 Calma 6 Noroeste 0 -- -- 59
2019-02-13 19:00:00 11 3 Noroeste 8 Sur 0 -- -- 43
2019-02-13 18:00:00 14.7 6 Sur 13 Sur 0 -- -- 36
2019-02-13 17:00:00 16.6 7 Sur 14 Sur 0 -- -- 29
2019-02-13 16:00:00 17.1 6 Sudeste 14 Sur 0 -- -- 30
2019-02-13 15:00:00 16.9 7 Sudeste 15 Sudeste 0 -- -- 33
2019-02-13 14:00:00 15.9 3 Sur 12 Sudeste 0 -- -- 36
2019-02-13 13:00:00 12.3 3 Nordeste 9 Este 0 -- -- 45
2019-02-13 12:00:00 8.4 6 Este 9 Sudeste 0 -- -- 55
2019-02-13 11:00:00 3.6 3 Sudeste 6 Sudeste 0 -- -- 70
2019-02-13 10:00:00 -0.7 3 Este 5 Este 0 -- -- 88
2019-02-13 09:00:00 -5.4 0 Calma 3 Oeste 0 -- -- 96
2019-02-13 08:00:00 -6.2 2 Oeste 5 Oeste 0 -- -- 95
2019-02-13 07:00:00 -6 5 Oeste 5 Oeste 0 -- -- 95
2019-02-13 06:00:00 -5.6 3 Oeste 4 Sudoeste 0 -- -- 95
2019-02-13 05:00:00 -5.4 2 Oeste 6 Sudoeste 0 -- -- 95
2019-02-13 04:00:00 -5 0 Calma 4 Oeste 0 -- -- 94
2019-02-13 03:00:00 -4.3 2 Oeste 4 Oeste 0 -- -- 94
2019-02-13 02:00:00 -3.9 0 Calma 6 Oeste 0 -- -- 93
2019-02-13 01:00:00 -2.9 2 Noroeste 8 Noroeste 0 -- -- 92
2019-02-13 00:00:00 -2.3 4 Oeste 12 Oeste 0 -- -- 91
2019-02-12 23:00:00 -1.5 3 Oeste 9 Oeste 0 -- -- 87
2019-02-12 22:00:00 -0.2 5 Oeste 9 Oeste 0 -- -- 85
2019-02-12 21:00:00 1.1 5 Oeste 8 Oeste 0 -- -- 80
2019-02-12 20:00:00 3.5 4 Noroeste 8 Noroeste 0 -- -- 72
2019-02-12 19:00:00 7.7 2 Oeste 7 Sur 0 -- -- 58
2019-02-12 18:00:00 12.6 4 Sudeste 13 Sudeste 0 -- -- 42
2019-02-12 17:00:00 13.8 7 Sudeste 15 Sudeste 0 -- -- 39
2019-02-12 16:00:00 13.2 5 Sudeste 11 Sudeste 0 -- -- 40
2019-02-12 15:00:00 11.3 3 Sur 14 Este 0 -- -- 54
2019-02-12 14:00:00 8.9 5 Este 12 Sudeste 0 -- -- 66
2019-02-12 13:00:00 4.8 5 Sudeste 11 Este 0 -- -- 86
2019-02-12 12:00:00 1.1 4 Sudeste 10 Este 0 -- -- 98
2019-02-12 11:00:00 -0.6 4 Este 6 Nordeste 0 -- -- 99
2019-02-12 10:00:00 -1.8 2 Sudoeste 5 Noroeste 0 -- -- 98
2019-02-12 09:00:00 -2.5 2 Sudoeste 4 Oeste 0 -- -- 98
2019-02-12 08:00:00 -3.1 0 Calma 6 Sudoeste 0 -- -- 97
2019-02-12 07:00:00 -3.2 3 Este 7 Este 0 -- -- 97
2019-02-12 06:00:00 -3.7 3 Oeste 9 Nordeste 0 -- -- 96
2019-02-12 05:00:00 -3.3 0 Calma 7 Sudoeste 0 -- -- 97
2019-02-12 04:00:00 -2.8 3 Este 11 Oeste 0 -- -- 97
2019-02-12 03:00:00 -2.4 6 Oeste 10 Oeste 0 -- -- 96
2019-02-12 02:00:00 -1.7 2 Oeste 8 Noroeste 0 -- -- 95
2019-02-12 01:00:00 -0.7 4 Este 6 Este 0 -- -- 94
2019-02-12 00:00:00 0.5 5 Noroeste 13 Este 0 -- -- 93
2019-02-11 23:00:00 0 5 Oeste 8 Este 0 -- -- 92
2019-02-11 22:00:00 0.6 5 Este 8 Este 0 -- -- 89
2019-02-11 21:00:00 2.4 2 Nordeste 13 Nordeste 0 -- -- 86
2019-02-11 20:00:00 3.2 9 Nordeste 11 Nordeste 0 -- -- 84
2019-02-11 19:00:00 4.6 5 Norte 19 Norte 0 -- -- 78
2019-02-11 18:00:00 5.8 12 Norte 28 Nordeste 0 -- -- 71
2019-02-11 17:00:00 7.6 10 Nordeste 32 Nordeste 0 -- -- 66
2019-02-11 16:00:00 9 10 Norte 24 Norte 0 -- -- 59
2019-02-11 15:00:00 8.8 13 Noroeste 24 Oeste 0 -- -- 59
2019-02-11 14:00:00 8.8 9 Noroeste 23 Noroeste 0 -- -- 56
2019-02-11 13:00:00 7.7 10 Noroeste 22 Oeste 0 -- -- 62
2019-02-11 12:00:00 7.1 9 Noroeste 23 Norte 0 -- -- 64
2019-02-11 11:00:00 5.6 9 Oeste 19 Noroeste 0 -- -- 75
2019-02-11 10:00:00 1.7 2 Oeste 10 Sudoeste 0 -- -- 86
2019-02-11 09:00:00 -1.8 5 Oeste 8 Noroeste 0 -- -- 93
2019-02-11 08:00:00 -1.8 3 Oeste 10 Oeste 0 -- -- 93
2019-02-11 07:00:00 -1.1 6 Noroeste 15 Oeste 0 -- -- 92
2019-02-11 06:00:00 -0.9 2 Nordeste 7 Oeste 0 -- -- 91
2019-02-11 05:00:00 -0.5 4 Sudoeste 10 Sudoeste 0 -- -- 89
2019-02-11 04:00:00 0.6 3 Sudeste 12 Sudoeste 0 -- -- 88
2019-02-11 03:00:00 1.4 4 Oeste 21 Nordeste 0 -- -- 86
2019-02-11 02:00:00 1.2 5 Oeste 17 Noroeste 0 -- -- 88
2019-02-11 01:00:00 1.7 3 Nordeste 8 Sudeste 0 -- -- 88
2019-02-11 00:00:00 2.8 5 Este 11 Nordeste 0 -- -- 87
2019-02-10 23:00:00 3.8 5 Este 18 Nordeste 0 -- -- 87
2019-02-10 22:00:00 4.4 8 Norte 19 Noroeste 0 -- -- 84
2019-02-10 21:00:00 4.5 6 Norte 26 Nordeste 0 -- -- 83
2019-02-10 20:00:00 4.5 7 Nordeste 23 Noroeste 0 -- -- 84
2019-02-10 19:00:00 5 9 Nordeste 23 Norte 0 -- -- 86
2019-02-10 18:00:00 5.7 7 Norte 24 Norte 0 -- -- 84
2019-02-10 17:00:00 6.2 7 Norte 26 Norte 0 -- -- 84
2019-02-10 16:00:00 7.4 11 Norte 22 Norte 0 -- -- 83
2019-02-10 15:00:00 7.6 5 Nordeste 32 Norte 0 -- -- 84
2019-02-10 14:00:00 7.5 21 Norte 40 Oeste 0 -- -- 86
2019-02-10 13:00:00 10.9 22 Oeste 41 Sudoeste 0 -- -- 80
2019-02-10 12:00:00 10.3 22 Oeste 36 Sudoeste 0 -- -- 81
2019-02-10 11:00:00 8.5 15 Sudoeste 32 Sudoeste 0 -- -- 87
2019-02-10 10:00:00 8.1 19 Sudoeste 39 Sudoeste 0 -- -- 86
2019-02-10 09:00:00 7.6 16 Sudoeste 50 Sudoeste 0 -- -- 87
2019-02-10 08:00:00 7.4 21 Sudoeste 46 Sudoeste 0 -- -- 86
2019-02-10 07:00:00 7.4 15 Sudoeste 41 Sudoeste 0 -- -- 85
2019-02-10 06:00:00 7.4 18 Sudoeste 51 Sudoeste 0 -- -- 83
2019-02-10 05:00:00 7.4 28 Sudoeste 50 Sudoeste 0 -- -- 82
2019-02-10 04:00:00 7.4 15 Sudoeste 39 Sudoeste 0 -- -- 81
2019-02-10 03:00:00 6.8 16 Sudoeste 33 Sudoeste 0 -- -- 81
2019-02-10 02:00:00 6.7 22 Sudoeste 39 Sudoeste 0 -- -- 79
2019-02-10 01:00:00 6.6 20 Sudoeste 45 Oeste 0 -- -- 78
2019-02-10 00:00:00 6.9 21 Sudoeste 51 Sur 0 -- -- 76
2019-02-09 23:00:00 7.8 28 Sudoeste 50 Sudoeste 0 -- -- 72
2019-02-09 22:00:00 8.3 24 Sudoeste 49 Oeste 0 -- -- 69
2019-02-09 21:00:00 8.5 18 Sudoeste 37 Sudoeste 0 -- -- 70
2019-02-09 20:00:00 8.9 18 Sudoeste 32 Sudoeste 0 -- -- 68
2019-02-09 19:00:00 9 15 Oeste 36 Sudoeste 0 -- -- 67
2019-02-09 18:00:00 9.3 20 Sudoeste 37 Sudoeste 0 -- -- 66
2019-02-09 17:00:00 10.8 17 Sudoeste 44 Sudoeste 0 -- -- 62
2019-02-09 16:00:00 11.1 17 Sudoeste 39 Oeste 0 -- -- 64
2019-02-09 15:00:00 8.2 18 Sudoeste 36 Sudoeste 0 -- -- 77
2019-02-09 14:00:00 9 14 Sudoeste 32 Sudoeste 0 -- -- 72
2019-02-09 13:00:00 8 16 Sudoeste 30 Sur 0 -- -- 76
2019-02-09 12:00:00 8.7 16 Sudoeste 31 Oeste 0 -- -- 77
2019-02-09 11:00:00 6.8 10 Oeste 20 Oeste 0 -- -- 84
2019-02-09 10:00:00 6 5 Oeste 15 Sudoeste 0 -- -- 87
2019-02-09 09:00:00 5 2 Sudoeste 28 Sudoeste 0 -- -- 88
2019-02-09 08:00:00 4.6 15 Sudoeste 29 Sudoeste 0 -- -- 91
2019-02-09 07:00:00 3.4 5 Sudoeste 13 Sudoeste 0 -- -- 94
2019-02-09 06:00:00 3.8 4 Norte 21 Noroeste 0 -- -- 92
2019-02-09 05:00:00 4.1 12 Noroeste 18 Oeste 0 -- -- 90
2019-02-09 04:00:00 4.4 8 Oeste 18 Oeste 0 -- -- 87
2019-02-09 03:00:00 4.7 10 Noroeste 19 Oeste 0 -- -- 86
2019-02-09 02:00:00 4.9 6 Oeste 17 Noroeste 0 -- -- 83
2019-02-09 01:00:00 5.4 9 Oeste 19 Oeste 0 -- -- 82
2019-02-09 00:00:00 5.4 11 Oeste 21 Noroeste 0 -- -- 83
2019-02-08 23:00:00 5.7 5 Nordeste 14 Sudeste 0 -- -- 80
2019-02-08 22:00:00 5.9 3 Noroeste 15 Oeste 0 -- -- 80
2019-02-08 21:00:00 5.2 10 Sudoeste 24 Sudoeste 0 -- -- 83
2019-02-08 20:00:00 5.9 7 Noroeste 15 Norte 0 -- -- 79
2019-02-08 19:00:00 5.8 4 Norte 20 Sur 0 -- -- 76
2019-02-08 18:00:00 6.8 15 Oeste 29 Sudoeste 0 -- -- 73
2019-02-08 17:00:00 8.3 16 Oeste 30 Sudoeste 0 -- -- 66
2019-02-08 16:00:00 9.3 11 Sudoeste 27 Oeste 0 -- -- 65
2019-02-08 15:00:00 8.2 10 Sudoeste 25 Sudoeste 0 -- -- 71
2019-02-08 14:00:00 6.6 16 Sudoeste 45 Sudoeste 0 -- -- 78
2019-02-08 13:00:00 7 12 Sudoeste 42 Sudoeste 0 -- -- 77
2019-02-08 12:00:00 9 19 Sudoeste 36 Sudoeste 0 -- -- 72
2019-02-08 11:00:00 7.1 3 Este 7 Este 0 -- -- 78
2019-02-08 10:00:00 4.6 3 Oeste 11 Sudoeste 0 -- -- 89
2019-02-08 09:00:00 3 5 Oeste 14 Oeste 0 -- -- 92
2019-02-08 08:00:00 3.4 9 Noroeste 17 Oeste 0 -- -- 95
2019-02-08 07:00:00 3.4 13 Noroeste 19 Noroeste 0 -- -- 99
2019-02-08 06:00:00 -1.1 2 Este 8 Este 0 -- -- 99
2019-02-08 05:00:00 -1.5 2 Este 6 Este 0 -- -- 98
2019-02-08 04:00:00 -1 0 Calma 6 Noroeste 0 -- -- 98
2019-02-08 03:00:00 -0.2 4 Oeste 8 Oeste 0 -- -- 98
2019-02-08 02:00:00 0.6 2 Norte 7 Noroeste 0 -- -- 98
2019-02-08 01:00:00 1.2 0 Calma 4 Sudoeste 0 -- -- 97
2019-02-08 00:00:00 0.9 0 Calma 3 Sudoeste 0 -- -- 97
2019-02-07 23:00:00 0.2 2 Nordeste 7 Noroeste 0 -- -- 96
2019-02-07 22:00:00 0.6 3 Sudoeste 5 Sudoeste 0 -- -- 95
2019-02-07 21:00:00 1.5 0 Calma 5 Noroeste 0 -- -- 93
2019-02-07 20:00:00 3.4 3 Noroeste 9 Norte 0 -- -- 90
2019-02-07 19:00:00 4.9 5 Norte 13 Norte 0 -- -- 87
2019-02-07 18:00:00 7.1 3 Este 15 Norte 0 -- -- 82
2019-02-07 17:00:00 8 4 Noroeste 14 Nordeste 0 -- -- 78
2019-02-07 16:00:00 8.7 7 Nordeste 20 Este 0 -- -- 75
2019-02-07 15:00:00 9.9 12 Sudeste 21 Sudeste 0 -- -- 70
2019-02-07 14:00:00 9.8 15 Este 21 Sudeste 0 -- -- 73
2019-02-07 13:00:00 9.8 6 Este 10 Este 0 -- -- 71
2019-02-07 12:00:00 5.8 6 Sudeste 9 Este 0 -- -- 84
2019-02-07 11:00:00 3.8 2 Oeste 4 Oeste 0 -- -- 91
2019-02-07 10:00:00 1.1 3 Oeste 5 Sudoeste 0 -- -- 99
2019-02-07 09:00:00 -0.2 0 Calma 7 Este 0 -- -- 98
2019-02-07 08:00:00 -0.3 3 Oeste 8 Noroeste 0 -- -- 97
2019-02-07 07:00:00 -0.2 2 Oeste 9 Noroeste 0 -- -- 96
2019-02-07 06:00:00 0.3 4 Noroeste 8 Oeste 0 -- -- 95
2019-02-07 05:00:00 1.2 3 Noroeste 11 Noroeste 0 -- -- 95
2019-02-07 04:00:00 1.9 4 Noroeste 9 Noroeste 0 -- -- 93
2019-02-07 03:00:00 3.2 5 Nordeste 7 Nordeste 0 -- -- 94
2019-02-07 02:00:00 3.6 4 Noroeste 7 Noroeste 0 -- -- 91
2019-02-07 01:00:00 4.3 2 Este 5 Este 0 -- -- 91
2019-02-07 00:00:00 4.6 3 Noroeste 7 Oeste 0 -- -- 90
2019-02-06 23:00:00 6.2 5 Noroeste 14 Noroeste 0 -- -- 82
2019-02-06 22:00:00 6.2 8 Noroeste 12 Noroeste 0 -- -- 88
2019-02-06 21:00:00 5.8 3 Sur 8 Sudoeste 0 -- -- 82
2019-02-06 20:00:00 8 6 Nordeste 15 Este 0 -- -- 75
2019-02-06 19:00:00 9.9 4 Sudeste 18 Sur 0 -- -- 68
2019-02-06 18:00:00 11.9 5 Sur 21 Sudoeste 0 -- -- 63
2019-02-06 17:00:00 13.8 11 Sudoeste 27 Sudoeste 0 -- -- 58
2019-02-06 16:00:00 14.1 12 Sudoeste 27 Sudoeste 0 -- -- 60
2019-02-06 15:00:00 13.7 13 Sudoeste 29 Sudoeste 0 -- -- 61
2019-02-06 14:00:00 13.4 10 Sudoeste 24 Sudoeste 0 -- -- 60
2019-02-06 13:00:00 8.2 6 Este 12 Este 0 -- -- 78
2019-02-06 12:00:00 3.6 7 Este 10 Este 0 -- -- 96
2019-02-06 11:00:00 -0.5 4 Sudeste 8 Sudeste 0 -- -- 99
2019-02-06 10:00:00 -2.8 0 Calma 4 Sudeste 0 -- -- 99
2019-02-06 09:00:00 -3.6 0 Calma 3 Oeste 0 -- -- 98
2019-02-06 08:00:00 -3.6 0 Calma 4 Nordeste 0 -- -- 98
2019-02-06 07:00:00 -3.4 0 Calma 4 Este 0 -- -- 98
2019-02-06 06:00:00 -3.4 0 Calma 5 Este 0 -- -- 98
2019-02-06 05:00:00 -3.1 3 Este 4 Sudeste 0 -- -- 97
2019-02-06 04:00:00 -3.2 3 Este 4 Nordeste 0 -- -- 97
2019-02-06 03:00:00 -2.7 0 Calma 5 Oeste 0 -- -- 97
2019-02-06 02:00:00 -2.4 2 Sudoeste 8 Oeste 0 -- -- 97
2019-02-06 01:00:00 -1.8 3 Noroeste 8 Noroeste 0 -- -- 97
2019-02-06 00:00:00 -1.5 0 Calma 9 Oeste 0 -- -- 96
2019-02-05 23:00:00 -0.9 3 Oeste 8 Oeste 0 -- -- 95
2019-02-05 22:00:00 -0.1 5 Oeste 8 Noroeste 0 -- -- 94
2019-02-05 21:00:00 1 0 Calma 10 Noroeste 0 -- -- 92
2019-02-05 20:00:00 2.4 4 Oeste 6 Noroeste 0 -- -- 87
2019-02-05 19:00:00 6.3 5 Noroeste 10 Este 0 -- -- 75
2019-02-05 18:00:00 10.4 8 Este 14 Este 0 -- -- 62
2019-02-05 17:00:00 12.6 5 Sudeste 10 Sudeste 0 -- -- 57
2019-02-05 16:00:00 12.8 5 Este 10 Este 0 -- -- 54
2019-02-05 15:00:00 12.4 4 Sur 11 Sudoeste 0 -- -- 54
2019-02-05 14:00:00 11.3 4 Sur 13 Sudoeste 0 -- -- 54
2019-02-05 13:00:00 9 7 Sudoeste 13 Sudoeste 0 -- -- 60
2019-02-05 12:00:00 6.6 0 Calma 4 Sur 0 -- -- 69
2019-02-05 11:00:00 2.7 0 Calma 4 Sudoeste 0 -- -- 83
2019-02-05 10:00:00 -0.9 4 Oeste 5 Noroeste 0 -- -- 96
2019-02-05 09:00:00 -2.7 3 Oeste 10 Oeste 0 -- -- 98
2019-02-05 08:00:00 -2.7 6 Oeste 10 Oeste 0 -- -- 98
2019-02-05 07:00:00 -2.7 5 Oeste 8 Oeste 0 -- -- 98
2019-02-05 06:00:00 -2.2 0 Calma 7 Oeste 0 -- -- 97
2019-02-05 05:00:00 -1.6 5 Noroeste 9 Oeste 0 -- -- 97
2019-02-05 04:00:00 -1.1 3 Noroeste 12 Noroeste 0 -- -- 96
2019-02-05 03:00:00 -0.2 6 Oeste 10 Oeste 0 -- -- 96
2019-02-05 02:00:00 0.1 4 Oeste 9 Oeste 0 -- -- 96
2019-02-05 01:00:00 0.3 5 Oeste 12 Oeste 0 -- -- 94
2019-02-05 00:00:00 1.1 6 Noroeste 8 Oeste 0 -- -- 93
2019-02-04 23:00:00 1.6 4 Noroeste 8 Noroeste 0 -- -- 92
2019-02-04 22:00:00 1.6 3 Noroeste 11 Oeste 0 -- -- 92
2019-02-04 21:00:00 1.6 0 Calma 9 Noroeste 0 -- -- 91
2019-02-04 20:00:00 1.6 8 Noroeste 10 Noroeste 0 -- -- 89
2019-02-04 19:00:00 2.7 5 Noroeste 9 Noroeste 0 -- -- 81
2019-02-04 18:00:00 6.3 2 Sudeste 5 Sur 0 -- -- 64
2019-02-04 17:00:00 7.6 3 Sur 21 Oeste 0 -- -- 58
2019-02-04 16:00:00 7 10 Sudoeste 22 Oeste 0 -- -- 58
2019-02-04 15:00:00 6.4 14 Oeste 22 Oeste 0 -- -- 59
2019-02-04 14:00:00 4.9 7 Oeste 18 Sudoeste 0 -- -- 62
2019-02-04 13:00:00 5.1 5 Sudoeste 10 Sudoeste 0 -- -- 63
2019-02-04 12:00:00 2 2 Sudoeste 6 Noroeste 0 -- -- 74
2019-02-04 11:00:00 -2 4 Noroeste 13 Noroeste 0 -- -- 92
2019-02-04 10:00:00 -4.5 2 Sudoeste 6 Oeste 0 -- -- 97
2019-02-04 09:00:00 -6.6 5 Oeste 9 Noroeste 0 -- -- 96
2019-02-04 08:00:00 -6.6 5 Oeste 9 Noroeste 0 -- -- 95
2019-02-04 07:00:00 -6.7 0 Calma 5 Este 0 -- -- 95
2019-02-04 06:00:00 -6.5 2 Oeste 9 Oeste 0 -- -- 96
2019-02-04 05:00:00 -6.7 2 Noroeste 6 Oeste 0 -- -- 96
2019-02-04 04:00:00 -6.5 4 Este 6 Noroeste 0 -- -- 95
2019-02-04 03:00:00 -6 0 Calma 9 Oeste 0 -- -- 95
2019-02-04 02:00:00 -5.9 0 Calma 13 Oeste 0 -- -- 95
2019-02-04 01:00:00 -5.4 6 Oeste 9 Noroeste 0 -- -- 96
2019-02-04 00:00:00 -4.8 5 Oeste 12 Sudoeste 0 -- -- 96
2019-02-03 23:00:00 -3.9 2 Oeste 6 Nordeste 0 -- -- 95
2019-02-03 22:00:00 -3.1 4 Oeste 11 Oeste 0 -- -- 95
2019-02-03 21:00:00 -2.2 2 Norte 6 Sudoeste 0 -- -- 93
2019-02-03 20:00:00 -0.9 4 Oeste 12 Oeste 0 -- -- 89
2019-02-03 19:00:00 0.7 4 Oeste 12 Norte 0 -- -- 84
2019-02-03 18:00:00 2.7 5 Norte 18 Noroeste 0 -- -- 75
2019-02-03 17:00:00 3.1 10 Noroeste 19 Oeste 0 -- -- 74
2019-02-03 16:00:00 4.5 8 Noroeste 24 Noroeste 0 -- -- 68
2019-02-03 15:00:00 3.4 4 Norte 19 Nordeste 0 -- -- 76
2019-02-03 14:00:00 3.1 12 Norte 26 Noroeste 0 -- -- 79
2019-02-03 13:00:00 3.4 9 Norte 19 Noroeste 0 -- -- 77
2019-02-03 12:00:00 2.1 6 Noroeste 19 Noroeste 0.8 -- -- 86
2019-02-03 11:00:00 0.8 2 Sur 13 Oeste 1.2 -- -- 92
2019-02-03 10:00:00 -0.2 4 Oeste 16 Noroeste 0.4 -- -- 95
2019-02-03 09:00:00 -0.5 3 Sudoeste 9 Noroeste 0.6 -- -- 96
2019-02-03 08:00:00 -0.4 8 Oeste 16 Oeste 0 -- -- 95
2019-02-03 07:00:00 -0.5 3 Norte 13 Oeste 0.2 -- -- 94
2019-02-03 06:00:00 -0.8 5 Oeste 8 Oeste 0 -- -- 93
2019-02-03 05:00:00 -0.4 5 Oeste 14 Noroeste 0 -- -- 94
2019-02-03 04:00:00 -0.6 0 Calma 10 Sudoeste 0 -- -- 95
2019-02-03 03:00:00 -0.4 4 Sudoeste 18 Sur 0.2 -- -- 95
2019-02-03 02:00:00 -0.6 10 Oeste 17 Oeste 0 -- -- 96
2019-02-03 01:00:00 -0.6 4 Nordeste 8 Noroeste 0.2 -- -- 96
2019-02-03 00:00:00 -0.5 9 Oeste 31 Oeste 0.4 -- -- 94
2019-02-02 23:00:00 -0.2 6 Noroeste 29 Noroeste 0.4 -- -- 94
2019-02-02 22:00:00 -0.3 9 Oeste 25 Sudoeste 0.6 -- -- 95
2019-02-02 21:00:00 -0.4 13 Noroeste 40 Oeste 0.2 -- -- 95
2019-02-02 20:00:00 -0.2 15 Oeste 32 Oeste 0.4 -- -- 95
2019-02-02 19:00:00 -0.3 7 Oeste 19 Oeste 0.6 -- -- 94
2019-02-02 18:00:00 0.1 3 Oeste 29 Noroeste 0.8 -- -- 94
2019-02-02 17:00:00 -0.1 13 Noroeste 40 Noroeste 0.2 -- -- 90
2019-02-02 16:00:00 2.3 16 Oeste 42 Oeste 0 -- -- 73
2019-02-02 15:00:00 3.4 15 Noroeste 39 Noroeste 0 -- -- 72
2019-02-02 14:00:00 1.9 19 Noroeste 35 Oeste 0.2 -- -- 84
2019-02-02 13:00:00 0.2 13 Oeste 40 Oeste 0.2 -- -- 92
2019-02-02 12:00:00 0.8 3 Nordeste 27 Noroeste 0.2 -- -- 88
2019-02-02 11:00:00 0.4 8 Oeste 34 Oeste 2 -- -- 95
2019-02-02 10:00:00 0.2 15 Oeste 30 Oeste 0.2 -- -- 91
2019-02-02 09:00:00 0.1 16 Oeste 32 Oeste 0.4 -- -- 91
2019-02-02 08:00:00 0 24 Oeste 41 Oeste 0.6 -- -- 94
2019-02-02 07:00:00 0.3 14 Oeste 54 Oeste 0.4 -- -- 93
2019-02-02 06:00:00 1 24 Oeste 45 Oeste 0.4 -- -- 88
2019-02-02 05:00:00 0.9 18 Noroeste 46 Oeste 0.2 -- -- 92
2019-02-02 04:00:00 0.6 5 Oeste 35 Noroeste 0.6 -- -- 94
2019-02-02 03:00:00 1.1 17 Oeste 49 Noroeste 0.6 -- -- 92
2019-02-02 02:00:00 1 18 Noroeste 42 Oeste 2.6 -- -- 96
2019-02-02 01:00:00 0.7 12 Oeste 25 Oeste 3.8 -- -- 98
2019-02-02 00:00:00 0.2 0 Calma 6 Noroeste 4 -- -- 97
2019-02-01 23:00:00 0.4 5 Noroeste 12 Noroeste 1.6 -- -- 96
2019-02-01 22:00:00 0.6 10 Oeste 18 Oeste 0.6 -- -- 94
2019-02-01 21:00:00 1.2 13 Oeste 36 Oeste 0.4 -- -- 92
2019-02-01 20:00:00 2.4 17 Oeste 32 Oeste 0 -- -- 80
2019-02-01 19:00:00 2.5 12 Oeste 36 Sudoeste 0 -- -- 76
2019-02-01 18:00:00 4.2 24 Oeste 44 Oeste 0 -- -- 71
2019-02-01 17:00:00 5.1 22 Oeste 46 Sudoeste 0 -- -- 72
2019-02-01 16:00:00 4.8 24 Oeste 50 Oeste 0.4 -- -- 79
2019-02-01 15:00:00 3.8 18 Sudoeste 45 Oeste 0.2 -- -- 85
2019-02-01 14:00:00 3.9 13 Sudoeste 38 Sudoeste 0.2 -- -- 84
2019-02-01 13:00:00 5 23 Sudoeste 55 Sudoeste 0 -- -- 77
2019-02-01 12:00:00 5 29 Sudoeste 59 Sudoeste 0.2 -- -- 80
2019-02-01 11:00:00 4.6 22 Sudoeste 44 Sudoeste 0 -- -- 80
2019-02-01 10:00:00 3.5 18 Sudoeste 45 Sudoeste 0 -- -- 86
2019-02-01 09:00:00 3.8 23 Sudoeste 48 Sudoeste 0 -- -- 81
2019-02-01 08:00:00 4 21 Sudoeste 40 Sudoeste 0 -- -- 77
2019-02-01 07:00:00 4.6 16 Sudoeste 49 Sudoeste 0 -- -- 78
2019-02-01 06:00:00 5.3 25 Sudoeste 60 Sudoeste 0 -- -- 79
2019-02-01 05:00:00 4.8 17 Sudoeste 50 Sudoeste 0 -- -- 81
2019-02-01 04:00:00 4.9 20 Oeste 45 Sudoeste 0 -- -- 77
2019-02-01 03:00:00 5.8 25 Sudoeste 46 Sudoeste 0 -- -- 72
2019-02-01 02:00:00 5.7 16 Oeste 38 Sudoeste 0 -- -- 77
2019-02-01 01:00:00 6.9 22 Sudoeste 46 Sudoeste 0 -- -- 75
2019-02-01 00:00:00 7.4 19 Sudoeste 39 Sudoeste 0 -- -- 78
2019-01-31 23:00:00 8.3 21 Oeste 48 Sudoeste 0 -- -- 83
2019-01-31 22:00:00 8.6 20 Sudoeste 59 Sudoeste 1.6 -- -- 86
2019-01-31 21:00:00 9.1 28 Sudoeste 64 Sudoeste 6 -- -- 92
2019-01-31 20:00:00 9.4 19 Oeste 46 Sudoeste 4 -- -- 92
2019-01-31 19:00:00 10.1 26 Sudoeste 55 Sudoeste 1.6 -- -- 89
2019-01-31 18:00:00 10.5 26 Sudoeste 55 Sudoeste 0.4 -- -- 87
2019-01-31 17:00:00 11 30 Sudoeste 60 Sudoeste 0.2 -- -- 86
2019-01-31 16:00:00 10.8 26 Sudoeste 50 Sudoeste 0.6 -- -- 90
2019-01-31 15:00:00 11.2 27 Sudoeste 57 Sudoeste 0.6 -- -- 87
2019-01-31 14:00:00 11.1 19 Sudoeste 39 Sudoeste 0.2 -- -- 88
2019-01-31 13:00:00 10.4 19 Sudoeste 37 Sudoeste 0 -- -- 89
2019-01-31 12:00:00 9.7 18 Sudoeste 37 Sudoeste 0 -- -- 90
2019-01-31 11:00:00 9.5 14 Sudoeste 27 Sudoeste 0 -- -- 92
2019-01-31 10:00:00 7.4 9 Noroeste 24 Oeste 0 -- -- 95
2019-01-31 09:00:00 7.2 15 Oeste 32 Oeste 0.2 -- -- 93
2019-01-31 08:00:00 6.5 19 Oeste 36 Oeste 0.2 -- -- 93
2019-01-31 07:00:00 6 18 Oeste 30 Oeste 0.2 -- -- 93
2019-01-31 06:00:00 5.7 19 Oeste 31 Oeste 0.2 -- -- 93
2019-01-31 05:00:00 5.4 12 Oeste 26 Oeste 0 -- -- 94
2019-01-31 04:00:00 5.1 12 Oeste 32 Oeste 0 -- -- 94
2019-01-31 03:00:00 4.9 12 Oeste 23 Oeste 0.2 -- -- 93
2019-01-31 02:00:00 4.7 14 Oeste 23 Oeste 0 -- -- 93
2019-01-31 01:00:00 4.6 13 Oeste 25 Oeste 0.2 -- -- 93
2019-01-31 00:00:00 3.3 4 Este 10 Este 0 -- -- 95
2019-01-30 23:00:00 3.2 2 Este 11 Noroeste 0 -- -- 94
2019-01-30 22:00:00 3.3 7 Noroeste 16 Oeste 0.2 -- -- 93
2019-01-30 21:00:00 3 6 Oeste 17 Sudoeste 0.8 -- -- 93
2019-01-30 20:00:00 3.2 7 Oeste 17 Oeste 0.2 -- -- 90
2019-01-30 19:00:00 4 10 Sudoeste 33 Oeste 0 -- -- 86
2019-01-30 18:00:00 4.4 11 Oeste 40 Oeste 0 -- -- 79
2019-01-30 17:00:00 5.7 14 Sudoeste 31 Oeste 0 -- -- 62
2019-01-30 16:00:00 6.2 13 Sudoeste 43 Sudoeste 0 -- -- 59
2019-01-30 15:00:00 6.2 27 Oeste 44 Sudoeste 0 -- -- 57
2019-01-30 14:00:00 6.8 23 Sudoeste 40 Oeste 0 -- -- 56
2019-01-30 13:00:00 6.2 19 Oeste 35 Sudoeste 0 -- -- 51
2019-01-30 12:00:00 6.3 16 Sudoeste 26 Sudoeste 0 -- -- 57
2019-01-30 11:00:00 2.7 2 Sudeste 8 Sudeste 0 -- -- 76
2019-01-30 10:00:00 -1.1 2 Sudeste 5 Este 0 -- -- 97
2019-01-30 09:00:00 -4.2 0 Calma 10 Oeste 0 -- -- 96
2019-01-30 08:00:00 -3.9 4 Oeste 7 Sudoeste 0 -- -- 96
2019-01-30 07:00:00 -3.2 2 Este 6 Este 0 -- -- 96
2019-01-30 06:00:00 -3.3 0 Calma 10 Oeste 0 -- -- 96
2019-01-30 05:00:00 -2.8 9 Oeste 11 Oeste 0 -- -- 96
2019-01-30 04:00:00 -2.8 4 Oeste 8 Sudoeste 0 -- -- 94
2019-01-30 03:00:00 -2 4 Noroeste 10 Oeste 0 -- -- 94
2019-01-30 02:00:00 -1.8 4 Oeste 13 Sudoeste 0 -- -- 92
2019-01-30 01:00:00 -1 6 Noroeste 10 Noroeste 0 -- -- 92
2019-01-30 00:00:00 -0.8 4 Oeste 15 Sudoeste 0 -- -- 89
2019-01-29 23:00:00 0.2 5 Sudoeste 10 Sudoeste 0 -- -- 87
2019-01-29 22:00:00 1.4 3 Sudeste 9 Nordeste 0 -- -- 85
2019-01-29 21:00:00 2.4 3 Sudeste 14 Noroeste 0 -- -- 82
2019-01-29 20:00:00 3.6 6 Norte 24 Norte 0 -- -- 79
2019-01-29 19:00:00 4.7 14 Norte 25 Noroeste 0 -- -- 75
2019-01-29 18:00:00 6.5 15 Noroeste 33 Noroeste 0 -- -- 68
2019-01-29 17:00:00 8 17 Noroeste 35 Noroeste 0 -- -- 70
2019-01-29 16:00:00 9.7 20 Oeste 32 Oeste 0 -- -- 73
2019-01-29 15:00:00 8.4 19 Oeste 35 Oeste 0 -- -- 86
2019-01-29 14:00:00 7.5 18 Oeste 39 Sudoeste 0.4 -- -- 85
2019-01-29 13:00:00 6.6 13 Oeste 37 Sudoeste 0 -- -- 81
2019-01-29 12:00:00 5.3 19 Sudoeste 48 Sudoeste 0 -- -- 82
2019-01-29 11:00:00 4.9 26 Sudoeste 45 Sudoeste 0 -- -- 84
2019-01-29 10:00:00 3.7 13 Sudoeste 47 Oeste 0 -- -- 88
2019-01-29 09:00:00 0.5 6 Sudeste 12 Sudoeste 0 -- -- 93
2019-01-29 08:00:00 -1 3 Noroeste 7 Oeste 0 -- -- 95
2019-01-29 07:00:00 -1 4 Noroeste 6 Noroeste 0 -- -- 95
2019-01-29 06:00:00 -1.4 2 Nordeste 9 Oeste 0 -- -- 96
2019-01-29 05:00:00 -2.1 5 Oeste 11 Oeste 0 -- -- 95
2019-01-29 04:00:00 -2.4 3 Oeste 10 Noroeste 0 -- -- 94
2019-01-29 03:00:00 -1.5 3 Noroeste 6 Nordeste 0 -- -- 91
2019-01-29 02:00:00 -0.5 2 Sur 12 Sudoeste 0 -- -- 89
2019-01-29 01:00:00 1.1 3 Oeste 7 Norte 0 -- -- 84
2019-01-29 00:00:00 2.1 4 Sur 14 Sudoeste 0 -- -- 83
2019-01-28 23:00:00 4.2 10 Oeste 17 Noroeste 0 -- -- 73
2019-01-28 22:00:00 3.5 4 Oeste 27 Norte 0 -- -- 79
2019-01-28 21:00:00 5.5 14 Norte 26 Norte 0 -- -- 72
2019-01-28 20:00:00 5.2 15 Norte 35 Noroeste 0 -- -- 76
2019-01-28 19:00:00 5.1 19 Norte 35 Norte 0 -- -- 76
2019-01-28 18:00:00 6.3 15 Noroeste 41 Noroeste 0 -- -- 67
2019-01-28 17:00:00 6.7 13 Noroeste 40 Norte 0 -- -- 74
2019-01-28 16:00:00 8.4 22 Noroeste 48 Noroeste 0 -- -- 67
2019-01-28 15:00:00 8.2 21 Noroeste 55 Noroeste 0 -- -- 65
2019-01-28 14:00:00 8.2 30 Norte 54 Noroeste 0 -- -- 69
2019-01-28 13:00:00 8.6 22 Noroeste 45 Noroeste 0 -- -- 67
2019-01-28 12:00:00 6.9 15 Noroeste 30 Noroeste 0 -- -- 79
2019-01-28 11:00:00 0.8 4 Oeste 8 Sudoeste 0 -- -- 87
2019-01-28 10:00:00 -2.1 5 Oeste 11 Oeste 0 -- -- 96
2019-01-28 09:00:00 -4.5 6 Nordeste 14 Oeste 0 -- -- 97
2019-01-28 08:00:00 -4.7 3 Oeste 11 Oeste 0 -- -- 96
2019-01-28 07:00:00 -4.9 8 Oeste 11 Sudoeste 0 -- -- 96
2019-01-28 06:00:00 -4.5 6 Oeste 9 Sudoeste 0 -- -- 96
2019-01-28 05:00:00 -3.7 3 Oeste 9 Noroeste 0 -- -- 96
2019-01-28 04:00:00 -2.8 3 Oeste 13 Noroeste 0 -- -- 95
2019-01-28 03:00:00 -2.7 4 Oeste 12 Oeste 0 -- -- 94
2019-01-28 02:00:00 -1.9 4 Norte 10 Oeste 0 -- -- 93
2019-01-28 01:00:00 -1.3 2 Sudoeste 10 Oeste 0 -- -- 92
2019-01-28 00:00:00 -0.8 4 Oeste 15 Noroeste 0 -- -- 89
2019-01-27 23:00:00 -0.5 3 Oeste 12 Sudoeste 0 -- -- 88
2019-01-27 22:00:00 0.4 6 Oeste 11 Sudoeste 0 -- -- 84
2019-01-27 21:00:00 3.2 5 Noroeste 17 Sudoeste 0 -- -- 79
2019-01-27 20:00:00 3.1 5 Sudoeste 32 Norte 0 -- -- 75
2019-01-27 19:00:00 4.1 19 Norte 39 Noroeste 0 -- -- 71
2019-01-27 18:00:00 5 19 Norte 36 Norte 0 -- -- 68
2019-01-27 17:00:00 6.1 18 Noroeste 41 Noroeste 0 -- -- 60
2019-01-27 16:00:00 5.6 19 Noroeste 56 Noroeste 0 -- -- 69
2019-01-27 15:00:00 5.3 23 Noroeste 51 Noroeste 0 -- -- 73
2019-01-27 14:00:00 6.6 19 Noroeste 51 Noroeste 0 -- -- 70
2019-01-27 13:00:00 5.5 18 Norte 46 Norte 0 -- -- 74
2019-01-27 12:00:00 5.7 13 Noroeste 26 Noroeste 0 -- -- 78
2019-01-27 11:00:00 3.3 2 Sur 9 Sudeste 0 -- -- 99
2019-01-27 10:00:00 -0.5 4 Norte 8 Oeste 0 -- -- 99
2019-01-27 09:00:00 -1.5 7 Oeste 12 Oeste 0 -- -- 99
2019-01-27 08:00:00 -0.7 5 Noroeste 9 Noroeste 0 -- -- 99
2019-01-27 07:00:00 -0.5 2 Oeste 11 Sudoeste 0 -- -- 98
2019-01-27 06:00:00 -0.4 3 Noroeste 12 Sudoeste 0 -- -- 99
2019-01-27 05:00:00 -1.2 3 Norte 6 Oeste 0 -- -- 98
2019-01-27 04:00:00 -0.5 4 Este 11 Noroeste 0 -- -- 98
2019-01-27 03:00:00 -0.9 10 Este 13 Este 0 -- -- 98
2019-01-27 02:00:00 -0.7 3 Oeste 9 Este 0 -- -- 97
2019-01-27 01:00:00 -0.6 5 Nordeste 13 Noroeste 0 -- -- 96
2019-01-27 00:00:00 -0.2 0 Calma 9 Noroeste 0 -- -- 96
2019-01-26 23:00:00 0.4 4 Noroeste 10 Noroeste 0 -- -- 94
2019-01-26 22:00:00 1.4 8 Noroeste 12 Noroeste 0 -- -- 93
2019-01-26 21:00:00 3.4 2 Este 6 Este 0 -- -- 91
2019-01-26 20:00:00 5.2 0 Calma 9 Norte 0 -- -- 83
2019-01-26 19:00:00 7.7 6 Norte 10 Sudoeste 0 -- -- 76
2019-01-26 18:00:00 10.3 3 Sudoeste 12 Sudoeste 0 -- -- 66
2019-01-26 17:00:00 11.4 9 Sudoeste 18 Sudoeste 0 -- -- 63
2019-01-26 16:00:00 11.4 7 Sudoeste 18 Oeste 0 -- -- 63
2019-01-26 15:00:00 9.6 8 Sudoeste 29 Oeste 0 -- -- 67
2019-01-26 14:00:00 7.4 17 Oeste 34 Oeste 0 -- -- 74
2019-01-26 13:00:00 6.1 17 Oeste 31 Oeste 0 -- -- 78
2019-01-26 12:00:00 6 13 Oeste 18 Oeste 0 -- -- 80
2019-01-26 11:00:00 3.1 6 Sudoeste 13 Oeste 0 -- -- 98
2019-01-26 10:00:00 1.4 5 Oeste 10 Oeste 0 -- -- 98
2019-01-26 09:00:00 0.7 3 Oeste 6 Oeste 0 -- -- 98
2019-01-26 08:00:00 0.7 2 Norte 6 Oeste 0 -- -- 98
2019-01-26 07:00:00 0.1 3 Noroeste 8 Oeste 0 -- -- 98
2019-01-26 06:00:00 -0.6 5 Oeste 8 Oeste 0 -- -- 98
2019-01-26 05:00:00 -1.1 4 Sudoeste 9 Oeste 0 -- -- 98
2019-01-26 04:00:00 -2 5 Oeste 9 Oeste 0 -- -- 97
2019-01-26 03:00:00 -1.7 3 Oeste 11 Oeste 0 -- -- 96
2019-01-26 02:00:00 -0.9 5 Oeste 7 Oeste 0 -- -- 95
2019-01-26 01:00:00 0.6 4 Sudoeste 6 Sudoeste 0 -- -- 93
2019-01-26 00:00:00 2.6 2 Sudoeste 9 Noroeste 0 -- -- 92
2019-01-25 23:00:00 3.8 4 Sur 18 Noroeste 0 -- -- 88
2019-01-25 22:00:00 4.9 6 Nordeste 17 Nordeste 0 -- -- 88
2019-01-25 21:00:00 5.1 5 Este 17 Este 0 -- -- 85
2019-01-25 20:00:00 6 7 Este 22 Sudeste 0 -- -- 83
2019-01-25 19:00:00 6.3 7 Norte 26 Noroeste 0 -- -- 85
2019-01-25 18:00:00 6.7 12 Noroeste 36 Norte 0 -- -- 83
2019-01-25 17:00:00 7.5 16 Norte 35 Norte 0 -- -- 81
2019-01-25 16:00:00 7.8 18 Norte 33 Norte 0 -- -- 81
2019-01-25 15:00:00 9.4 18 Noroeste 36 Noroeste 0 -- -- 76
2019-01-25 14:00:00 8.6 13 Noroeste 28 Norte 0 -- -- 77
2019-01-25 13:00:00 8.4 14 Norte 31 Noroeste 0 -- -- 78
2019-01-25 12:00:00 7.6 8 Nordeste 26 Oeste 0 -- -- 80
2019-01-25 11:00:00 7.4 10 Noroeste 29 Nordeste 0 -- -- 83
2019-01-25 10:00:00 7.3 10 Norte 35 Noroeste 0 -- -- 82
2019-01-25 09:00:00 6.7 8 Noroeste 23 Noroeste 0 -- -- 85
2019-01-25 08:00:00 7 5 Norte 20 Oeste 0 -- -- 87
2019-01-25 07:00:00 7 10 Oeste 19 Oeste 0 -- -- 89
2019-01-25 06:00:00 6.7 5 Este 11 Este 0 -- -- 93
2019-01-25 05:00:00 7.2 4 Sur 19 Sudoeste 0 -- -- 88
2019-01-25 04:00:00 7 4 Sudeste 10 Este 0 -- -- 89
2019-01-25 03:00:00 7 4 Sudeste 14 Sur 0 -- -- 90
2019-01-25 02:00:00 7.1 3 Sur 21 Oeste 0 -- -- 89
2019-01-25 01:00:00 7.4 9 Noroeste 21 Oeste 0 -- -- 86
2019-01-25 00:00:00 7.3 8 Oeste 28 Oeste 0 -- -- 90
2019-01-24 23:00:00 7.3 7 Sudeste 30 Norte 0 -- -- 91
2019-01-24 22:00:00 7.6 14 Norte 32 Norte 0 -- -- 91
2019-01-24 21:00:00 7.9 14 Norte 31 Norte 0 -- -- 88
2019-01-24 20:00:00 8.2 10 Norte 32 Noroeste 0 -- -- 87
2019-01-24 19:00:00 8.6 14 Norte 33 Noroeste 0 -- -- 85
2019-01-24 18:00:00 8.7 15 Noroeste 44 Oeste 0 -- -- 84
2019-01-24 17:00:00 9.2 10 Noroeste 32 Noroeste 0 -- -- 82
2019-01-24 16:00:00 9.1 7 Noroeste 24 Noroeste 0 -- -- 83
2019-01-24 15:00:00 9.1 5 Sudoeste 26 Oeste 0 -- -- 84
2019-01-24 14:00:00 9.1 5 Sudoeste 29 Noroeste 0 -- -- 85
2019-01-24 13:00:00 8.9 10 Noroeste 37 Norte 0.2 -- -- 87
2019-01-24 12:00:00 8.6 12 Norte 41 Noroeste 0 -- -- 89
2019-01-24 11:00:00 8.9 15 Norte 41 Norte 0.2 -- -- 90
2019-01-24 10:00:00 8.3 13 Norte 38 Noroeste 0.4 -- -- 92
2019-01-24 09:00:00 7.4 8 Norte 39 Noroeste 1 -- -- 95
2019-01-24 08:00:00 6.6 7 Noroeste 20 Noroeste 1.8 -- -- 96
2019-01-24 07:00:00 6.6 4 Oeste 29 Noroeste 1.6 -- -- 95
2019-01-24 06:00:00 6.8 12 Norte 26 Noroeste 1 -- -- 93
2019-01-24 05:00:00 6.7 10 Norte 27 Oeste 2.4 -- -- 93
2019-01-24 04:00:00 6.5 7 Noroeste 24 Noroeste 3.6 -- -- 94
2019-01-24 03:00:00 6.6 7 Noroeste 34 Oeste 3.4 -- -- 91
2019-01-24 02:00:00 6.1 10 Noroeste 27 Oeste 2.8 -- -- 94
2019-01-24 01:00:00 6 10 Oeste 36 Oeste 1.4 -- -- 94
2019-01-24 00:00:00 5.7 13 Noroeste 38 Norte 0.8 -- -- 94
2019-01-23 23:00:00 5.4 11 Noroeste 46 Oeste 0.8 -- -- 96
2019-01-23 22:00:00 5.5 12 Norte 52 Noroeste 1.2 -- -- 95
2019-01-23 21:00:00 5.8 15 Noroeste 41 Noroeste 0.4 -- -- 90
2019-01-23 20:00:00 6 17 Noroeste 45 Noroeste 0 -- -- 89
2019-01-23 19:00:00 6.8 22 Norte 62 Oeste 0 -- -- 86
2019-01-23 18:00:00 7 18 Noroeste 54 Noroeste 0.2 -- -- 85
2019-01-23 17:00:00 8 12 Norte 48 Noroeste 0 -- -- 83
2019-01-23 16:00:00 8.5 9 Noroeste 46 Noroeste 0 -- -- 87
2019-01-23 15:00:00 8.1 21 Noroeste 47 Noroeste 0.2 -- -- 86
2019-01-23 14:00:00 6.9 17 Noroeste 45 Oeste 0.8 -- -- 91
2019-01-23 13:00:00 6.1 21 Noroeste 41 Noroeste 0.4 -- -- 91
2019-01-23 12:00:00 6.1 19 Noroeste 36 Noroeste 0.6 -- -- 88
2019-01-23 11:00:00 5.5 17 Noroeste 45 Noroeste 0.6 -- -- 92
2019-01-23 10:00:00 5.2 14 Noroeste 33 Noroeste 0 -- -- 99
2019-01-23 09:00:00 2.7 9 Oeste 23 Noroeste 0.2 -- -- 100
2019-01-23 08:00:00 0.5 4 Sur 7 Oeste 0.4 -- -- 99
2019-01-23 07:00:00 0.4 2 Este 5 Sur 0.2 -- -- 99
2019-01-23 06:00:00 0.5 5 Este 6 Nordeste 0.4 -- -- 99
2019-01-23 05:00:00 0.4 4 Este 10 Noroeste 0 -- -- 99
2019-01-23 04:00:00 0.1 0 Calma 8 Noroeste 0 -- -- 99
2019-01-23 03:00:00 0.2 3 Norte 9 Este 0.2 -- -- 99
2019-01-23 02:00:00 0.1 0 Calma 4 Noroeste 0.6 -- -- 99
2019-01-23 01:00:00 0.1 0 Calma 5 Noroeste 1.6 -- -- 99
2019-01-23 00:00:00 0.1 0 Calma 3 Este 1.2 -- -- 99
2019-01-22 23:00:00 0 0 Calma 4 Noroeste 1.4 -- -- 98
2019-01-22 22:00:00 0.1 0 Calma 8 Este 1.4 -- -- 98
2019-01-22 21:00:00 0.5 2 Este 8 Oeste 1.2 -- -- 98
2019-01-22 20:00:00 1 2 Nordeste 6 Noroeste 0.8 -- -- 98
2019-01-22 19:00:00 1.2 3 Noroeste 5 Noroeste 0.4 -- -- 97
2019-01-22 18:00:00 1.7 3 Oeste 7 Oeste 0 -- -- 96
2019-01-22 17:00:00 1.9 4 Oeste 17 Norte 0.4 -- -- 96
2019-01-22 16:00:00 2.1 5 Norte 17 Norte 0.8 -- -- 95
2019-01-22 15:00:00 1.7 0 Calma 4 Sudeste 1 -- -- 97
2019-01-22 14:00:00 1.5 0 Calma 9 Norte 0 -- -- 96
2019-01-22 13:00:00 0.8 4 Noroeste 10 Sur 1.4 -- -- 98
2019-01-22 12:00:00 0.2 4 Noroeste 9 Noroeste 0.8 -- -- 97
2019-01-22 11:00:00 0 2 Sur 10 Noroeste 0 -- -- 98
2019-01-22 10:00:00 -0.6 3 Noroeste 8 Oeste 0 -- -- 98
2019-01-22 09:00:00 -1.2 3 Oeste 7 Noroeste 0 -- -- 98
2019-01-22 08:00:00 -1.3 3 Norte 7 Oeste 0 -- -- 98
2019-01-22 07:00:00 -1.1 5 Oeste 8 Noroeste 0 -- -- 97
2019-01-22 06:00:00 -1 6 Noroeste 11 Oeste 0 -- -- 98
2019-01-22 05:00:00 -1.4 7 Noroeste 9 Noroeste 0 -- -- 97
2019-01-22 04:00:00 -1.6 4 Oeste 12 Oeste 0 -- -- 97
2019-01-22 03:00:00 -1.8 6 Oeste 11 Oeste 0 -- -- 97
2019-01-22 02:00:00 -2.1 4 Oeste 8 Sudoeste 0 -- -- 97
2019-01-22 01:00:00 -2 3 Oeste 8 Sudoeste 0 -- -- 96
2019-01-22 00:00:00 -2 4 Sudoeste 10 Sudoeste 0 -- -- 95
2019-01-21 23:00:00 -1.9 5 Oeste 10 Sudoeste 0 -- -- 95
2019-01-21 22:00:00 -1.8 2 Este 7 Oeste 0 -- -- 93
2019-01-21 21:00:00 -1.5 4 Oeste 10 Sudoeste 0 -- -- 92
2019-01-21 20:00:00 -0.3 0 Calma 15 Norte 0 -- -- 85
2019-01-21 19:00:00 2.2 5 Noroeste 22 Norte 0 -- -- 73
2019-01-21 18:00:00 3.1 12 Noroeste 24 Oeste 0 -- -- 65
2019-01-21 17:00:00 5.1 12 Oeste 22 Oeste 0 -- -- 66
2019-01-21 16:00:00 5.8 10 Noroeste 24 Oeste 0 -- -- 67
2019-01-21 15:00:00 4 6 Noroeste 24 Oeste 0.2 -- -- 85
2019-01-21 14:00:00 4 6 Norte 13 Noroeste 0 -- -- 84
2019-01-21 13:00:00 3.4 6 Norte 19 Norte 0 -- -- 86
2019-01-21 12:00:00 3.3 6 Norte 20 Nordeste 0 -- -- 86
2019-01-21 11:00:00 2.7 3 Este 15 Noroeste 0.4 -- -- 98
2019-01-21 10:00:00 1.7 8 Norte 15 Norte 0.6 -- -- 99
2019-01-21 09:00:00 0.7 0 Calma 6 Noroeste 0 -- -- 99
2019-01-21 08:00:00 0.5 2 Noroeste 9 Noroeste 0.4 -- -- 99
2019-01-21 07:00:00 0.2 3 Este 6 Sur 0.4 -- -- 99
2019-01-21 06:00:00 0.1 2 Noroeste 6 Oeste 0.2 -- -- 99
2019-01-21 05:00:00 0.2 2 Nordeste 5 Este 1.4 -- -- 98
2019-01-21 04:00:00 0.3 3 Este 8 Noroeste 0.4 -- -- 98
2019-01-21 03:00:00 0.4 5 Noroeste 8 Oeste 1.6 -- -- 98
2019-01-21 02:00:00 0.3 2 Oeste 6 Noroeste 4 -- -- 98
2019-01-21 01:00:00 0.9 2 Noroeste 7 Noroeste 1.2 -- -- 98
2019-01-21 00:00:00 0.9 5 Oeste 8 Nordeste 1.8 -- -- 97
2019-01-20 23:00:00 1.5 2 Sudoeste 5 Oeste 0.8 -- -- 97
2019-01-20 22:00:00 1.1 2 Oeste 5 Noroeste 0 -- -- 97
2019-01-20 21:00:00 1.2 4 Oeste 12 Este 1.8 -- -- 96
2019-01-20 20:00:00 2.2 5 Este 7 Este 1.2 -- -- 96
2019-01-20 19:00:00 2.4 6 Este 9 Este 0.6 -- -- 95
2019-01-20 18:00:00 2.5 6 Sudoeste 15 Sudoeste 0.6 -- -- 94
2019-01-20 17:00:00 3.4 5 Oeste 20 Oeste 0.4 -- -- 91
2019-01-20 16:00:00 4.3 10 Oeste 19 Oeste 1 -- -- 92
2019-01-20 15:00:00 4 5 Noroeste 21 Nordeste 1.6 -- -- 91
2019-01-20 14:00:00 4.9 8 Noroeste 24 Oeste 0.6 -- -- 89
2019-01-20 13:00:00 5 9 Sudoeste 15 Sudoeste 0.8 -- -- 91
2019-01-20 12:00:00 3.9 6 Oeste 10 Oeste 0.4 -- -- 92
2019-01-20 11:00:00 3.5 4 Oeste 12 Oeste 1 -- -- 95
2019-01-20 10:00:00 2.7 3 Este 12 Nordeste 0.2 -- -- 97
2019-01-20 09:00:00 2 3 Sudeste 8 Este 0.6 -- -- 97
2019-01-20 08:00:00 1.8 3 Este 12 Noroeste 0.4 -- -- 97
2019-01-20 07:00:00 2.1 3 Oeste 15 Noroeste 0.2 -- -- 98
2019-01-20 06:00:00 2.2 4 Noroeste 12 Norte 0.4 -- -- 98
2019-01-20 05:00:00 2 3 Sur 8 Noroeste 0.6 -- -- 99
2019-01-20 04:00:00 1.3 0 Calma 7 Sudoeste 0.2 -- -- 99
2019-01-20 03:00:00 0.7 2 Sudeste 8 Sudoeste 0 -- -- 99
2019-01-20 02:00:00 0.5 3 Nordeste 6 Oeste 0 -- -- 98
2019-01-20 01:00:00 0.4 3 Oeste 6 Oeste 0 -- -- 98
2019-01-20 00:00:00 0.4 4 Noroeste 9 Noroeste 0 -- -- 98
2019-01-19 23:00:00 0.2 0 Calma 6 Oeste 0.2 -- -- 97
2019-01-19 22:00:00 0.2 0 Calma 4 Noroeste 0.2 -- -- 97
2019-01-19 21:00:00 0.2 2 Oeste 3 Oeste 1 -- -- 96
2019-01-19 20:00:00 0.5 2 Oeste 5 Noroeste 1.2 -- -- 95
2019-01-19 19:00:00 1.3 3 Norte 6 Sudoeste 0.6 -- -- 93
2019-01-19 18:00:00 2.1 0 Calma 9 Sudoeste 0 -- -- 93
2019-01-19 17:00:00 2.1 5 Sudoeste 14 Oeste 0.2 -- -- 94
2019-01-19 16:00:00 2 8 Oeste 19 Sudoeste 0.6 -- -- 93
2019-01-19 15:00:00 2.2 8 Oeste 24 Oeste 0.8 -- -- 91
2019-01-19 14:00:00 3.6 9 Sudoeste 28 Sur 0 -- -- 85
2019-01-19 13:00:00 3.5 10 Sudoeste 20 Sudoeste 0 -- -- 85
2019-01-19 12:00:00 2.6 10 Sudoeste 20 Sudoeste 0 -- -- 87
2019-01-19 11:00:00 2 11 Oeste 28 Sudoeste 0 -- -- 88
2019-01-19 10:00:00 2.2 15 Sudoeste 26 Oeste 0 -- -- 86
2019-01-19 09:00:00 1.9 10 Sudoeste 22 Oeste 0 -- -- 90
2019-01-19 08:00:00 1.9 8 Sudoeste 22 Sudoeste 0 -- -- 90
2019-01-19 07:00:00 2.2 8 Sudoeste 22 Sudoeste 0 -- -- 89
2019-01-19 06:00:00 2.5 4 Oeste 13 Oeste 0 -- -- 89
2019-01-19 05:00:00 2.5 8 Oeste 18 Oeste 0 -- -- 87
2019-01-19 04:00:00 2.7 6 Sudoeste 23 Oeste 0 -- -- 86
2019-01-19 03:00:00 2.8 5 Sudoeste 19 Sudoeste 0 -- -- 85
2019-01-19 02:00:00 2.8 2 Oeste 19 Oeste 0 -- -- 85
2019-01-19 01:00:00 2.8 7 Oeste 18 Sudoeste 0 -- -- 85
2019-01-19 00:00:00 2.7 8 Sudoeste 23 Sudoeste 0 -- -- 86